sensor_id;sensor_type;location;lat;lon;timestamp;noise_LAeq;noise_LA_min;noise_LA_max;noise_LA01;noise_LA95
69620;Laerm;57654;51.434;5.984;2023-07-08T00:00:00;34.48;32.04;36.77;;
69620;Laerm;57654;51.434;5.984;2023-07-08T00:00:11;35.25;32.14;37.72;;
69620;Laerm;57654;51.434;5.984;2023-07-08T00:00:23;34.82;32.10;41.78;;
69620;Laerm;57654;51.434;5.984;2023-07-08T00:00:33;34.33;31.74;36.37;;
69620;Laerm;57654;51.434;5.984;2023-07-08T00:00:44;34.84;31.80;37.72;;
69620;Laerm;57654;51.434;5.984;2023-07-08T00:00:55;34.77;31.63;37.28;;
69620;Laerm;57654;51.434;5.984;2023-07-08T00:01:10;34.71;31.84;38.02;;
69620;Laerm;57654;51.434;5.984;2023-07-08T00:01:22;34.31;31.92;37.44;;
69620;Laerm;57654;51.434;5.984;2023-07-08T00:01:32;34.56;32.18;37.25;;
69620;Laerm;57654;51.434;5.984;2023-07-08T00:01:43;34.77;31.40;36.97;;
69620;Laerm;57654;51.434;5.984;2023-07-08T00:01:54;35.31;32.76;37.77;;
69620;Laerm;57654;51.434;5.984;2023-07-08T00:02:07;36.06;32.32;39.32;;
69620;Laerm;57654;51.434;5.984;2023-07-08T00:02:18;35.65;32.91;39.47;;
69620;Laerm;57654;51.434;5.984;2023-07-08T00:02:28;34.65;31.85;37.44;;
69620;Laerm;57654;51.434;5.984;2023-07-08T00:02:39;34.93;31.65;37.78;;
69620;Laerm;57654;51.434;5.984;2023-07-08T00:02:50;34.47;31.45;36.76;;
69620;Laerm;57654;51.434;5.984;2023-07-08T00:03:00;34.10;31.67;36.06;;
69620;Laerm;57654;51.434;5.984;2023-07-08T00:03:10;34.17;31.93;36.03;;
69620;Laerm;57654;51.434;5.984;2023-07-08T00:03:21;34.59;32.10;37.44;;
69620;Laerm;57654;51.434;5.984;2023-07-08T00:03:31;35.24;31.14;38.24;;
69620;Laerm;57654;51.434;5.984;2023-07-08T00:03:41;35.84;32.37;40.22;;
69620;Laerm;57654;51.434;5.984;2023-07-08T00:03:52;35.02;32.76;37.22;;
69620;Laerm;57654;51.434;5.984;2023-07-08T00:04:02;34.24;31.81;36.83;;
69620;Laerm;57654;51.434;5.984;2023-07-08T00:04:14;34.36;31.84;40.07;;
69620;Laerm;57654;51.434;5.984;2023-07-08T00:04:25;35.15;32.20;37.48;;
69620;Laerm;57654;51.434;5.984;2023-07-08T00:04:37;35.17;32.24;38.07;;
69620;Laerm;57654;51.434;5.984;2023-07-08T00:04:47;34.44;31.94;37.06;;
69620;Laerm;57654;51.434;5.984;2023-07-08T00:04:58;34.57;32.08;36.47;;
69620;Laerm;57654;51.434;5.984;2023-07-08T00:05:09;34.91;31.34;37.94;;
69620;Laerm;57654;51.434;5.984;2023-07-08T00:05:20;34.58;31.65;37.10;;
69620;Laerm;57654;51.434;5.984;2023-07-08T00:05:31;35.40;31.65;38.24;;
69620;Laerm;57654;51.434;5.984;2023-07-08T00:05:41;35.18;31.62;38.42;;
69620;Laerm;57654;51.434;5.984;2023-07-08T00:05:53;34.95;31.31;40.78;;
69620;Laerm;57654;51.434;5.984;2023-07-08T00:06:07;33.19;31.00;37.51;;
69620;Laerm;57654;51.434;5.984;2023-07-08T00:06:21;33.57;31.05;36.49;;
69620;Laerm;57654;51.434;5.984;2023-07-08T00:06:32;34.38;31.07;38.22;;
69620;Laerm;57654;51.434;5.984;2023-07-08T00:06:42;34.06;30.82;36.58;;
69620;Laerm;57654;51.434;5.984;2023-07-08T00:06:53;33.85;30.80;37.27;;
69620;Laerm;57654;51.434;5.984;2023-07-08T00:07:03;33.84;30.93;37.19;;
69620;Laerm;57654;51.434;5.984;2023-07-08T00:07:21;34.24;30.87;37.71;;
69620;Laerm;57654;51.434;5.984;2023-07-08T00:07:32;34.35;31.34;38.92;;
69620;Laerm;57654;51.434;5.984;2023-07-08T00:07:43;35.20;31.79;39.10;;
69620;Laerm;57654;51.434;5.984;2023-07-08T00:07:53;34.67;31.08;36.85;;
69620;Laerm;57654;51.434;5.984;2023-07-08T00:08:03;34.28;31.70;37.06;;
69620;Laerm;57654;51.434;5.984;2023-07-08T00:08:14;33.66;31.84;36.77;;
69620;Laerm;57654;51.434;5.984;2023-07-08T00:08:24;33.97;31.15;44.90;;
69620;Laerm;57654;51.434;5.984;2023-07-08T00:08:35;35.00;31.81;38.37;;
69620;Laerm;57654;51.434;5.984;2023-07-08T00:08:45;34.44;31.13;36.84;;
69620;Laerm;57654;51.434;5.984;2023-07-08T00:08:56;34.54;32.38;37.58;;
69620;Laerm;57654;51.434;5.984;2023-07-08T00:09:12;34.60;31.41;37.10;;
69620;Laerm;57654;51.434;5.984;2023-07-08T00:09:22;34.89;31.54;38.02;;
69620;Laerm;57654;51.434;5.984;2023-07-08T00:09:33;34.75;31.76;37.58;;
69620;Laerm;57654;51.434;5.984;2023-07-08T00:09:43;39.82;32.95;45.43;;
69620;Laerm;57654;51.434;5.984;2023-07-08T00:09:54;45.59;42.82;47.81;;
69620;Laerm;57654;51.434;5.984;2023-07-08T00:10:14;45.49;43.49;48.52;;
69620;Laerm;57654;51.434;5.984;2023-07-08T00:10:26;41.02;34.51;46.59;;
69620;Laerm;57654;51.434;5.984;2023-07-08T00:10:36;35.12;33.11;37.46;;
69620;Laerm;57654;51.434;5.984;2023-07-08T00:10:47;34.79;33.01;37.14;;
69620;Laerm;57654;51.434;5.984;2023-07-08T00:10:57;34.65;31.77;36.87;;
69620;Laerm;57654;51.434;5.984;2023-07-08T00:11:09;34.56;32.08;37.15;;
69620;Laerm;57654;51.434;5.984;2023-07-08T00:11:20;34.17;32.08;37.14;;
69620;Laerm;57654;51.434;5.984;2023-07-08T00:11:30;34.07;31.31;36.38;;
69620;Laerm;57654;51.434;5.984;2023-07-08T00:11:40;34.35;31.89;36.75;;
69620;Laerm;57654;51.434;5.984;2023-07-08T00:11:50;34.28;31.76;37.22;;
69620;Laerm;57654;51.434;5.984;2023-07-08T00:12:04;34.81;31.64;37.45;;
69620;Laerm;57654;51.434;5.984;2023-07-08T00:12:14;33.96;31.54;37.19;;
69620;Laerm;57654;51.434;5.984;2023-07-08T00:12:24;33.85;31.06;36.47;;
69620;Laerm;57654;51.434;5.984;2023-07-08T00:12:34;33.43;31.28;37.82;;
69620;Laerm;57654;51.434;5.984;2023-07-08T00:12:45;33.41;31.35;36.97;;
69620;Laerm;57654;51.434;5.984;2023-07-08T00:12:57;33.45;31.70;36.22;;
69620;Laerm;57654;51.434;5.984;2023-07-08T00:13:07;33.60;31.98;35.47;;
69620;Laerm;57654;51.434;5.984;2023-07-08T00:13:18;34.19;32.07;37.45;;
69620;Laerm;57654;51.434;5.984;2023-07-08T00:13:28;34.52;31.93;37.75;;
69620;Laerm;57654;51.434;5.984;2023-07-08T00:13:39;35.26;32.48;38.98;;
69620;Laerm;57654;51.434;5.984;2023-07-08T00:13:49;34.72;31.98;37.63;;
69620;Laerm;57654;51.434;5.984;2023-07-08T00:13:59;34.46;32.20;36.61;;
69620;Laerm;57654;51.434;5.984;2023-07-08T00:14:09;34.19;31.99;36.80;;
69620;Laerm;57654;51.434;5.984;2023-07-08T00:14:20;34.55;32.25;37.79;;
69620;Laerm;57654;51.434;5.984;2023-07-08T00:14:30;34.42;32.22;36.60;;
69620;Laerm;57654;51.434;5.984;2023-07-08T00:14:40;34.24;31.91;36.50;;
69620;Laerm;57654;51.434;5.984;2023-07-08T00:14:50;34.02;31.97;36.70;;
69620;Laerm;57654;51.434;5.984;2023-07-08T00:15:01;33.95;30.94;36.28;;
69620;Laerm;57654;51.434;5.984;2023-07-08T00:15:11;33.91;31.33;36.29;;
69620;Laerm;57654;51.434;5.984;2023-07-08T00:15:28;34.18;31.77;37.66;;
69620;Laerm;57654;51.434;5.984;2023-07-08T00:15:39;34.46;31.92;37.29;;
69620;Laerm;57654;51.434;5.984;2023-07-08T00:15:50;34.49;31.65;38.49;;
69620;Laerm;57654;51.434;5.984;2023-07-08T00:16:00;33.56;31.45;36.09;;
69620;Laerm;57654;51.434;5.984;2023-07-08T00:16:11;33.79;31.58;36.09;;
69620;Laerm;57654;51.434;5.984;2023-07-08T00:16:23;35.02;31.75;37.54;;
69620;Laerm;57654;51.434;5.984;2023-07-08T00:16:33;35.69;32.55;38.47;;
69620;Laerm;57654;51.434;5.984;2023-07-08T00:16:44;38.05;34.17;42.18;;
69620;Laerm;57654;51.434;5.984;2023-07-08T00:16:55;47.74;40.26;52.48;;
69620;Laerm;57654;51.434;5.984;2023-07-08T00:17:10;51.40;49.30;53.36;;
69620;Laerm;57654;51.434;5.984;2023-07-08T00:17:21;45.98;34.36;51.88;;
69620;Laerm;57654;51.434;5.984;2023-07-08T00:17:31;34.55;31.40;37.63;;
69620;Laerm;57654;51.434;5.984;2023-07-08T00:17:41;34.30;31.72;36.91;;
69620;Laerm;57654;51.434;5.984;2023-07-08T00:17:52;34.46;31.79;38.12;;
69620;Laerm;57654;51.434;5.984;2023-07-08T00:18:08;34.45;31.61;37.58;;
69620;Laerm;57654;51.434;5.984;2023-07-08T00:18:19;34.71;32.02;37.69;;
69620;Laerm;57654;51.434;5.984;2023-07-08T00:18:30;35.14;32.34;38.26;;
69620;Laerm;57654;51.434;5.984;2023-07-08T00:18:40;34.99;32.06;38.56;;
69620;Laerm;57654;51.434;5.984;2023-07-08T00:18:50;34.58;31.53;36.73;;
69620;Laerm;57654;51.434;5.984;2023-07-08T00:19:01;35.28;31.81;37.99;;
69620;Laerm;57654;51.434;5.984;2023-07-08T00:19:11;35.58;32.30;38.24;;
69620;Laerm;57654;51.434;5.984;2023-07-08T00:19:21;34.25;31.83;36.67;;
69620;Laerm;57654;51.434;5.984;2023-07-08T00:19:33;34.09;31.23;36.99;;
69620;Laerm;57654;51.434;5.984;2023-07-08T00:19:44;34.05;31.10;37.07;;
69620;Laerm;57654;51.434;5.984;2023-07-08T00:19:54;33.78;31.32;36.75;;
69620;Laerm;57654;51.434;5.984;2023-07-08T00:20:09;34.34;31.96;36.94;;
69620;Laerm;57654;51.434;5.984;2023-07-08T00:20:21;34.44;31.07;37.18;;
69620;Laerm;57654;51.434;5.984;2023-07-08T00:20:37;34.56;31.73;37.78;;
69620;Laerm;57654;51.434;5.984;2023-07-08T00:20:49;34.60;31.58;37.50;;
69620;Laerm;57654;51.434;5.984;2023-07-08T00:20:59;34.24;31.45;37.44;;
69620;Laerm;57654;51.434;5.984;2023-07-08T00:21:14;33.56;31.34;35.98;;
69620;Laerm;57654;51.434;5.984;2023-07-08T00:21:25;33.30;30.84;36.23;;
69620;Laerm;57654;51.434;5.984;2023-07-08T00:21:35;32.79;31.00;35.42;;
69620;Laerm;57654;51.434;5.984;2023-07-08T00:21:46;32.94;31.07;36.32;;
69620;Laerm;57654;51.434;5.984;2023-07-08T00:21:56;33.71;31.22;36.39;;
69620;Laerm;57654;51.434;5.984;2023-07-08T00:22:11;34.34;31.29;36.92;;
69620;Laerm;57654;51.434;5.984;2023-07-08T00:22:22;34.60;31.03;37.42;;
69620;Laerm;57654;51.434;5.984;2023-07-08T00:22:34;34.27;31.09;38.20;;
69620;Laerm;57654;51.434;5.984;2023-07-08T00:22:46;33.80;31.54;39.16;;
69620;Laerm;57654;51.434;5.984;2023-07-08T00:22:57;34.08;30.92;36.96;;
69620;Laerm;57654;51.434;5.984;2023-07-08T00:23:08;33.96;31.27;36.64;;
69620;Laerm;57654;51.434;5.984;2023-07-08T00:23:18;33.77;31.55;38.06;;
69620;Laerm;57654;51.434;5.984;2023-07-08T00:23:31;33.49;30.99;35.64;;
69620;Laerm;57654;51.434;5.984;2023-07-08T00:23:45;33.77;31.33;36.16;;
69620;Laerm;57654;51.434;5.984;2023-07-08T00:23:56;34.19;31.38;38.45;;
69620;Laerm;57654;51.434;5.984;2023-07-08T00:24:06;34.64;31.86;37.38;;
69620;Laerm;57654;51.434;5.984;2023-07-08T00:24:17;33.87;31.31;36.40;;
69620;Laerm;57654;51.434;5.984;2023-07-08T00:24:27;33.59;31.84;36.25;;
69620;Laerm;57654;51.434;5.984;2023-07-08T00:24:37;33.58;30.89;36.55;;
69620;Laerm;57654;51.434;5.984;2023-07-08T00:24:47;33.46;31.24;35.76;;
69620;Laerm;57654;51.434;5.984;2023-07-08T00:24:58;34.19;31.36;37.48;;
69620;Laerm;57654;51.434;5.984;2023-07-08T00:25:08;34.24;31.48;36.58;;
69620;Laerm;57654;51.434;5.984;2023-07-08T00:25:18;34.27;31.22;37.84;;
69620;Laerm;57654;51.434;5.984;2023-07-08T00:25:32;34.28;31.84;37.11;;
69620;Laerm;57654;51.434;5.984;2023-07-08T00:25:42;34.59;31.75;38.25;;
69620;Laerm;57654;51.434;5.984;2023-07-08T00:25:53;33.80;31.17;36.76;;
69620;Laerm;57654;51.434;5.984;2023-07-08T00:26:07;33.98;31.09;36.30;;
69620;Laerm;57654;51.434;5.984;2023-07-08T00:26:20;34.89;31.55;37.92;;
69620;Laerm;57654;51.434;5.984;2023-07-08T00:26:31;34.64;31.12;37.62;;
69620;Laerm;57654;51.434;5.984;2023-07-08T00:26:42;34.22;31.11;38.25;;
69620;Laerm;57654;51.434;5.984;2023-07-08T00:26:52;33.35;30.82;36.01;;
69620;Laerm;57654;51.434;5.984;2023-07-08T00:27:02;34.33;31.03;40.16;;
69620;Laerm;57654;51.434;5.984;2023-07-08T00:27:13;34.34;31.67;36.84;;
69620;Laerm;57654;51.434;5.984;2023-07-08T00:27:23;33.25;30.90;36.80;;
69620;Laerm;57654;51.434;5.984;2023-07-08T00:27:33;33.49;31.02;36.10;;
69620;Laerm;57654;51.434;5.984;2023-07-08T00:27:44;34.11;31.77;36.87;;
69620;Laerm;57654;51.434;5.984;2023-07-08T00:27:54;33.68;30.99;36.52;;
69620;Laerm;57654;51.434;5.984;2023-07-08T00:28:14;33.45;31.11;36.35;;
69620;Laerm;57654;51.434;5.984;2023-07-08T00:28:25;33.62;30.91;36.76;;
69620;Laerm;57654;51.434;5.984;2023-07-08T00:28:35;33.50;31.03;36.94;;
69620;Laerm;57654;51.434;5.984;2023-07-08T00:28:46;33.67;31.04;36.38;;
69620;Laerm;57654;51.434;5.984;2023-07-08T00:28:56;34.07;31.07;36.59;;
69620;Laerm;57654;51.434;5.984;2023-07-08T00:29:09;34.66;31.71;37.10;;
69620;Laerm;57654;51.434;5.984;2023-07-08T00:29:23;34.13;31.40;37.55;;
69620;Laerm;57654;51.434;5.984;2023-07-08T00:29:33;33.99;31.46;45.57;;
69620;Laerm;57654;51.434;5.984;2023-07-08T00:29:43;34.34;31.25;37.00;;
69620;Laerm;57654;51.434;5.984;2023-07-08T00:29:53;35.17;31.35;38.06;;
69620;Laerm;57654;51.434;5.984;2023-07-08T00:30:10;34.50;31.81;37.85;;
69620;Laerm;57654;51.434;5.984;2023-07-08T00:30:25;33.64;30.65;36.51;;
69620;Laerm;57654;51.434;5.984;2023-07-08T00:30:36;34.88;31.84;38.43;;
69620;Laerm;57654;51.434;5.984;2023-07-08T00:30:46;33.97;31.28;36.67;;
69620;Laerm;57654;51.434;5.984;2023-07-08T00:30:57;35.63;31.75;52.78;;
69620;Laerm;57654;51.434;5.984;2023-07-08T00:31:10;34.11;31.21;36.86;;
69620;Laerm;57654;51.434;5.984;2023-07-08T00:31:21;33.75;30.90;37.61;;
69620;Laerm;57654;51.434;5.984;2023-07-08T00:31:33;32.98;30.90;35.92;;
69620;Laerm;57654;51.434;5.984;2023-07-08T00:31:44;33.01;30.71;35.73;;
69620;Laerm;57654;51.434;5.984;2023-07-08T00:31:54;33.00;31.25;35.62;;
69620;Laerm;57654;51.434;5.984;2023-07-08T00:32:11;33.03;30.71;34.77;;
69620;Laerm;57654;51.434;5.984;2023-07-08T00:32:22;34.36;31.75;38.53;;
69620;Laerm;57654;51.434;5.984;2023-07-08T00:32:32;34.89;31.76;37.82;;
69620;Laerm;57654;51.434;5.984;2023-07-08T00:32:43;34.52;31.33;38.46;;
69620;Laerm;57654;51.434;5.984;2023-07-08T00:32:53;33.51;31.04;35.95;;
69620;Laerm;57654;51.434;5.984;2023-07-08T00:33:05;33.48;30.96;38.30;;
69620;Laerm;57654;51.434;5.984;2023-07-08T00:33:15;33.35;31.06;36.10;;
69620;Laerm;57654;51.434;5.984;2023-07-08T00:33:26;33.23;30.82;35.90;;
69620;Laerm;57654;51.434;5.984;2023-07-08T00:33:36;33.61;31.33;36.18;;
69620;Laerm;57654;51.434;5.984;2023-07-08T00:33:47;33.76;30.78;36.49;;
69620;Laerm;57654;51.434;5.984;2023-07-08T00:33:57;34.05;30.66;37.31;;
69620;Laerm;57654;51.434;5.984;2023-07-08T00:34:07;34.01;31.11;36.11;;
69620;Laerm;57654;51.434;5.984;2023-07-08T00:34:17;33.32;30.74;35.84;;
69620;Laerm;57654;51.434;5.984;2023-07-08T00:34:28;32.52;30.39;35.44;;
69620;Laerm;57654;51.434;5.984;2023-07-08T00:34:38;32.59;30.95;34.88;;
69620;Laerm;57654;51.434;5.984;2023-07-08T00:34:48;32.51;30.82;34.73;;
69620;Laerm;57654;51.434;5.984;2023-07-08T00:34:58;32.71;30.96;36.96;;
69620;Laerm;57654;51.434;5.984;2023-07-08T00:35:09;33.34;31.12;41.64;;
69620;Laerm;57654;51.434;5.984;2023-07-08T00:35:20;33.29;30.99;36.96;;
69620;Laerm;57654;51.434;5.984;2023-07-08T00:35:31;32.96;30.94;35.65;;
69620;Laerm;57654;51.434;5.984;2023-07-08T00:35:43;33.81;30.52;38.04;;
69620;Laerm;57654;51.434;5.984;2023-07-08T00:35:54;33.28;30.42;35.95;;
69620;Laerm;57654;51.434;5.984;2023-07-08T00:36:14;32.89;30.66;35.89;;
69620;Laerm;57654;51.434;5.984;2023-07-08T00:36:28;33.42;30.83;36.32;;
69620;Laerm;57654;51.434;5.984;2023-07-08T00:36:38;33.78;31.00;37.02;;
69620;Laerm;57654;51.434;5.984;2023-07-08T00:36:48;33.18;30.85;36.71;;
69620;Laerm;57654;51.434;5.984;2023-07-08T00:36:58;33.30;30.74;35.86;;
69620;Laerm;57654;51.434;5.984;2023-07-08T00:37:10;33.06;30.62;36.49;;
69620;Laerm;57654;51.434;5.984;2023-07-08T00:37:20;33.04;31.10;36.56;;
69620;Laerm;57654;51.434;5.984;2023-07-08T00:37:31;33.07;30.68;35.26;;
69620;Laerm;57654;51.434;5.984;2023-07-08T00:37:41;32.98;30.71;36.45;;
69620;Laerm;57654;51.434;5.984;2023-07-08T00:37:51;33.25;31.24;35.22;;
69620;Laerm;57654;51.434;5.984;2023-07-08T00:38:15;33.86;31.39;37.58;;
69620;Laerm;57654;51.434;5.984;2023-07-08T00:38:26;34.44;30.53;36.99;;
69620;Laerm;57654;51.434;5.984;2023-07-08T00:38:37;33.00;30.64;36.02;;
69620;Laerm;57654;51.434;5.984;2023-07-08T00:38:47;32.06;30.69;34.10;;
69620;Laerm;57654;51.434;5.984;2023-07-08T00:38:58;32.45;30.68;34.72;;
69620;Laerm;57654;51.434;5.984;2023-07-08T00:39:12;32.16;30.79;33.84;;
69620;Laerm;57654;51.434;5.984;2023-07-08T00:39:23;32.26;30.47;34.87;;
69620;Laerm;57654;51.434;5.984;2023-07-08T00:39:34;32.81;30.56;37.75;;
69620;Laerm;57654;51.434;5.984;2023-07-08T00:39:44;33.09;31.24;35.47;;
69620;Laerm;57654;51.434;5.984;2023-07-08T00:39:55;33.99;30.96;36.60;;
69620;Laerm;57654;51.434;5.984;2023-07-08T00:40:13;33.21;31.08;37.56;;
69620;Laerm;57654;51.434;5.984;2023-07-08T00:40:23;33.35;30.67;36.40;;
69620;Laerm;57654;51.434;5.984;2023-07-08T00:40:35;33.13;30.73;36.09;;
69620;Laerm;57654;51.434;5.984;2023-07-08T00:40:52;33.02;31.06;35.80;;
69620;Laerm;57654;51.434;5.984;2023-07-08T00:41:27;33.27;30.55;37.87;;
69620;Laerm;57654;51.434;5.984;2023-07-08T00:41:39;32.73;30.57;35.48;;
69620;Laerm;57654;51.434;5.984;2023-07-08T00:41:51;33.36;30.38;35.92;;
69620;Laerm;57654;51.434;5.984;2023-07-08T00:42:06;33.43;30.71;36.84;;
69620;Laerm;57654;51.434;5.984;2023-07-08T00:42:22;33.35;30.63;38.35;;
69620;Laerm;57654;51.434;5.984;2023-07-08T00:42:34;33.34;31.31;37.01;;
69620;Laerm;57654;51.434;5.984;2023-07-08T00:42:44;33.30;30.98;35.48;;
69620;Laerm;57654;51.434;5.984;2023-07-08T00:42:54;34.39;30.93;38.03;;
69620;Laerm;57654;51.434;5.984;2023-07-08T00:43:06;34.42;31.20;36.84;;
69620;Laerm;57654;51.434;5.984;2023-07-08T00:43:19;33.75;30.87;37.24;;
69620;Laerm;57654;51.434;5.984;2023-07-08T00:43:37;33.66;30.63;36.88;;
69620;Laerm;57654;51.434;5.984;2023-07-08T00:43:52;32.63;30.76;35.33;;
69620;Laerm;57654;51.434;5.984;2023-07-08T00:44:02;32.83;30.64;36.11;;
69620;Laerm;57654;51.434;5.984;2023-07-08T00:44:13;33.01;30.91;35.12;;
69620;Laerm;57654;51.434;5.984;2023-07-08T00:44:23;33.49;30.67;36.09;;
69620;Laerm;57654;51.434;5.984;2023-07-08T00:44:33;33.35;30.98;35.83;;
69620;Laerm;57654;51.434;5.984;2023-07-08T00:44:44;33.17;30.76;36.25;;
69620;Laerm;57654;51.434;5.984;2023-07-08T00:44:54;33.28;30.13;37.03;;
69620;Laerm;57654;51.434;5.984;2023-07-08T00:45:20;32.72;30.54;35.87;;
69620;Laerm;57654;51.434;5.984;2023-07-08T00:46:01;32.78;29.95;36.29;;
69620;Laerm;57654;51.434;5.984;2023-07-08T00:47:10;33.03;30.64;40.11;;
69620;Laerm;57654;51.434;5.984;2023-07-08T00:47:21;33.85;30.64;38.03;;
69620;Laerm;57654;51.434;5.984;2023-07-08T00:47:32;33.80;30.91;38.33;;
69620;Laerm;57654;51.434;5.984;2023-07-08T00:47:42;33.54;31.22;37.92;;
69620;Laerm;57654;51.434;5.984;2023-07-08T00:47:53;34.50;30.62;37.63;;
69620;Laerm;57654;51.434;5.984;2023-07-08T00:48:23;33.91;30.63;37.16;;
69620;Laerm;57654;51.434;5.984;2023-07-08T00:48:33;33.57;30.58;38.34;;
69620;Laerm;57654;51.434;5.984;2023-07-08T00:48:45;33.81;31.42;38.29;;
69620;Laerm;57654;51.434;5.984;2023-07-08T00:49:05;34.12;31.05;37.61;;
69620;Laerm;57654;51.434;5.984;2023-07-08T00:49:25;33.50;30.63;36.46;;
69620;Laerm;57654;51.434;5.984;2023-07-08T00:49:44;34.36;30.80;37.31;;
69620;Laerm;57654;51.434;5.984;2023-07-08T00:49:56;33.90;30.21;37.27;;
69620;Laerm;57654;51.434;5.984;2023-07-08T00:50:08;33.54;30.71;36.81;;
69620;Laerm;57654;51.434;5.984;2023-07-08T00:50:21;33.48;31.08;36.01;;
69620;Laerm;57654;51.434;5.984;2023-07-08T00:50:31;33.67;30.59;36.36;;
69620;Laerm;57654;51.434;5.984;2023-07-08T00:50:42;33.62;30.68;36.62;;
69620;Laerm;57654;51.434;5.984;2023-07-08T00:50:53;33.30;30.38;36.81;;
69620;Laerm;57654;51.434;5.984;2023-07-08T00:51:03;32.81;30.60;36.28;;
69620;Laerm;57654;51.434;5.984;2023-07-08T00:51:22;32.88;30.30;36.66;;
69620;Laerm;57654;51.434;5.984;2023-07-08T00:51:41;33.70;30.75;37.05;;
69620;Laerm;57654;51.434;5.984;2023-07-08T00:51:52;32.97;30.65;36.17;;
69620;Laerm;57654;51.434;5.984;2023-07-08T00:52:31;33.52;30.49;39.51;;
69620;Laerm;57654;51.434;5.984;2023-07-08T00:52:42;33.07;30.13;35.66;;
69620;Laerm;57654;51.434;5.984;2023-07-08T00:53:16;32.44;30.83;36.57;;
69620;Laerm;57654;51.434;5.984;2023-07-08T00:53:32;32.16;30.28;37.17;;
69620;Laerm;57654;51.434;5.984;2023-07-08T00:53:43;32.37;30.51;35.07;;
69620;Laerm;57654;51.434;5.984;2023-07-08T00:53:53;32.52;30.89;35.27;;
69620;Laerm;57654;51.434;5.984;2023-07-08T00:54:04;32.54;30.61;34.83;;
69620;Laerm;57654;51.434;5.984;2023-07-08T00:54:15;32.94;30.64;35.84;;
69620;Laerm;57654;51.434;5.984;2023-07-08T00:54:26;32.84;30.71;35.31;;
69620;Laerm;57654;51.434;5.984;2023-07-08T00:54:36;32.63;30.71;34.86;;
69620;Laerm;57654;51.434;5.984;2023-07-08T00:54:53;32.22;30.46;34.58;;
69620;Laerm;57654;51.434;5.984;2023-07-08T00:55:05;32.25;30.06;34.77;;
69620;Laerm;57654;51.434;5.984;2023-07-08T00:55:16;32.34;30.53;34.86;;
69620;Laerm;57654;51.434;5.984;2023-07-08T00:55:26;32.40;30.19;34.59;;
69620;Laerm;57654;51.434;5.984;2023-07-08T00:55:37;32.78;30.76;36.49;;
69620;Laerm;57654;51.434;5.984;2023-07-08T00:55:47;33.02;30.71;35.95;;
69620;Laerm;57654;51.434;5.984;2023-07-08T00:56:02;33.15;30.82;35.84;;
69620;Laerm;57654;51.434;5.984;2023-07-08T00:56:31;34.22;30.76;37.59;;
69620;Laerm;57654;51.434;5.984;2023-07-08T00:56:45;32.86;30.16;36.28;;
69620;Laerm;57654;51.434;5.984;2023-07-08T00:56:58;34.24;31.43;38.01;;
69620;Laerm;57654;51.434;5.984;2023-07-08T00:57:09;33.34;30.60;36.14;;
69620;Laerm;57654;51.434;5.984;2023-07-08T00:57:21;32.47;30.16;35.67;;
69620;Laerm;57654;51.434;5.984;2023-07-08T00:57:34;32.05;30.36;34.11;;
69620;Laerm;57654;51.434;5.984;2023-07-08T00:57:45;32.48;29.88;35.79;;
69620;Laerm;57654;51.434;5.984;2023-07-08T00:57:56;32.32;30.48;34.59;;
69620;Laerm;57654;51.434;5.984;2023-07-08T00:58:06;32.25;30.63;34.01;;
69620;Laerm;57654;51.434;5.984;2023-07-08T00:58:17;32.06;30.48;33.88;;
69620;Laerm;57654;51.434;5.984;2023-07-08T00:58:37;32.01;30.40;34.30;;
69620;Laerm;57654;51.434;5.984;2023-07-08T00:58:51;32.25;30.38;35.23;;
69620;Laerm;57654;51.434;5.984;2023-07-08T00:59:08;32.34;30.54;34.80;;
69620;Laerm;57654;51.434;5.984;2023-07-08T00:59:33;32.70;30.81;35.19;;
69620;Laerm;57654;51.434;5.984;2023-07-08T00:59:51;33.37;30.75;36.92;;
69620;Laerm;57654;51.434;5.984;2023-07-08T01:00:10;33.91;30.66;37.79;;
69620;Laerm;57654;51.434;5.984;2023-07-08T01:00:22;33.78;31.16;37.68;;
69620;Laerm;57654;51.434;5.984;2023-07-08T01:00:32;33.15;30.75;35.79;;
69620;Laerm;57654;51.434;5.984;2023-07-08T01:00:43;33.71;31.15;36.46;;
69620;Laerm;57654;51.434;5.984;2023-07-08T01:00:53;34.12;30.87;36.34;;
69620;Laerm;57654;51.434;5.984;2023-07-08T01:01:07;33.19;30.47;36.54;;
69620;Laerm;57654;51.434;5.984;2023-07-08T01:01:17;32.78;30.44;35.50;;
69620;Laerm;57654;51.434;5.984;2023-07-08T01:01:28;32.99;30.51;35.48;;
69620;Laerm;57654;51.434;5.984;2023-07-08T01:01:40;33.04;30.86;34.85;;
69620;Laerm;57654;51.434;5.984;2023-07-08T01:01:51;32.63;30.49;34.84;;
69620;Laerm;57654;51.434;5.984;2023-07-08T01:02:04;32.27;30.57;38.05;;
69620;Laerm;57654;51.434;5.984;2023-07-08T01:02:18;32.39;30.48;35.11;;
69620;Laerm;57654;51.434;5.984;2023-07-08T01:02:29;32.80;30.83;35.15;;
69620;Laerm;57654;51.434;5.984;2023-07-08T01:02:46;32.69;30.50;36.89;;
69620;Laerm;57654;51.434;5.984;2023-07-08T01:02:58;33.53;30.92;36.46;;
69620;Laerm;57654;51.434;5.984;2023-07-08T01:03:08;33.46;31.31;35.63;;
69620;Laerm;57654;51.434;5.984;2023-07-08T01:03:18;32.50;30.55;35.43;;
69620;Laerm;57654;51.434;5.984;2023-07-08T01:03:29;32.52;30.65;34.89;;
69620;Laerm;57654;51.434;5.984;2023-07-08T01:03:50;32.63;30.51;35.09;;
69620;Laerm;57654;51.434;5.984;2023-07-08T01:04:08;33.71;30.67;37.25;;
69620;Laerm;57654;51.434;5.984;2023-07-08T01:04:20;33.42;30.70;37.36;;
69620;Laerm;57654;51.434;5.984;2023-07-08T01:04:39;34.04;30.95;37.41;;
69620;Laerm;57654;51.434;5.984;2023-07-08T01:04:58;36.63;30.62;47.65;;
69620;Laerm;57654;51.434;5.984;2023-07-08T01:05:11;38.79;31.94;51.32;;
69620;Laerm;57654;51.434;5.984;2023-07-08T01:05:23;37.86;31.17;51.97;;
69620;Laerm;57654;51.434;5.984;2023-07-08T01:05:35;37.73;30.59;50.99;;
69620;Laerm;57654;51.434;5.984;2023-07-08T01:05:48;39.61;30.78;53.97;;
69620;Laerm;57654;51.434;5.984;2023-07-08T01:06:00;36.78;30.58;52.39;;
69620;Laerm;57654;51.434;5.984;2023-07-08T01:06:10;38.19;31.05;50.91;;
69620;Laerm;57654;51.434;5.984;2023-07-08T01:06:21;39.79;30.70;56.34;;
69620;Laerm;57654;51.434;5.984;2023-07-08T01:06:41;37.75;31.56;55.36;;
69620;Laerm;57654;51.434;5.984;2023-07-08T01:06:54;38.95;32.15;56.10;;
69620;Laerm;57654;51.434;5.984;2023-07-08T01:07:07;39.09;31.05;55.45;;
69620;Laerm;57654;51.434;5.984;2023-07-08T01:07:19;38.82;31.44;56.48;;
69620;Laerm;57654;51.434;5.984;2023-07-08T01:07:31;37.96;30.81;51.19;;
69620;Laerm;57654;51.434;5.984;2023-07-08T01:07:44;39.14;31.36;55.28;;
69620;Laerm;57654;51.434;5.984;2023-07-08T01:07:56;33.80;31.03;36.63;;
69620;Laerm;57654;51.434;5.984;2023-07-08T01:08:07;39.11;30.77;56.69;;
69620;Laerm;57654;51.434;5.984;2023-07-08T01:08:17;33.17;31.47;35.45;;
69620;Laerm;57654;51.434;5.984;2023-07-08T01:08:28;39.32;31.43;54.64;;
69620;Laerm;57654;51.434;5.984;2023-07-08T01:08:38;34.03;30.89;36.92;;
69620;Laerm;57654;51.434;5.984;2023-07-08T01:08:49;33.20;30.97;36.08;;
69620;Laerm;57654;51.434;5.984;2023-07-08T01:09:04;38.45;30.37;56.77;;
69620;Laerm;57654;51.434;5.984;2023-07-08T01:09:15;34.07;31.37;36.90;;
69620;Laerm;57654;51.434;5.984;2023-07-08T01:09:27;34.36;31.14;40.68;;
69620;Laerm;57654;51.434;5.984;2023-07-08T01:09:43;33.26;31.06;36.30;;
69620;Laerm;57654;51.434;5.984;2023-07-08T01:09:57;32.90;30.25;36.00;;